ジュネーヴ の空港の天気 - METARとTAF

ジュネーヴ・コアントラン国際空港 ( LSGG / GVA ) - スイス ジュネーヴ
飛行場実況気象(Metar)
観測時間02/28 01:20 CET (02/28 00:20 UTC)
風向・風速西南西 8m/s
視程10km以上
天気現象弱い雨
少しの雲 雲底高度 1400m
全天の8割程度の雲 雲底高度 1650m
気温10℃
湿度76%
気圧1001hPa
METARLSGG 280020Z AUTO 25016KT 9999 -RA FEW046 BKN054 10/06 Q1001 NOSIG
過去の天気等 Google飛行場航空写真 Wunderground天気予報

過去48時間のMETAR

飛行場予報(TAF)
発表時間: 2/28 00:25 CET (2/27 23:25 UTC)
予報対象時間: 28日1時 CET ~ 1日7時 CET
風向・風速南西 5m/s 瞬間風速 10m/s
視程10km以上
天気現象
少しの雲 雲底高度 460m
全天の4割程度の雲 雲底高度 1,830m
全天の8割程度の雲 雲底高度 2,130m
28日7時 CET ~ 28日10時 CET に一時的に
風向・風速南西 8m/s 瞬間風速 18m/s
天気現象しゅう雨
少しの雲 雲底高度 610m
全天の8割程度の雲 雲底高度 1,520m
28日11時 CET から 確率 30% で
天気現象
少しの積乱雲 雲底高度 910m
全天の4割程度の雲 雲底高度 1,830m
全天の8割程度の雲 雲底高度 2,130m
1日4時 CET ~ 1日7時 CET に 確率 30% で一時的に
視程4,000m
天気現象雨雪
TAF LSGG 272325Z 2800/0106 22010G20KT 9999 RA FEW015 SCT060 BKN070 TX12/2815Z TN07/2806Z TN03/0106Z
TEMPO 2806/2809 22015G35KT SHRA FEW020 BKN050
PROB30 2810/2816 TS FEW030CB SCT060 BKN070
PROB30 TEMPO 0103/0106 4000 RASN